sensor_id;sensor_type;location;lat;lon;timestamp;temperature;humidity
19483;DHT22;9882;51.166;6.992;2023-07-31T03:58:44;17.20;99.90
19483;DHT22;9882;51.166;6.992;2023-07-31T04:01:13;17.30;99.90
19483;DHT22;9882;51.166;6.992;2023-07-31T04:06:45;17.10;99.90
19483;DHT22;9882;51.166;6.992;2023-07-31T04:09:13;17.20;99.90
19483;DHT22;9882;51.166;6.992;2023-07-31T04:14:48;17.20;99.90
19483;DHT22;9882;51.166;6.992;2023-07-31T04:22:51;17.30;99.90
19483;DHT22;9882;51.166;6.992;2023-07-31T05:18:07;17.60;99.90
19483;DHT22;9882;51.166;6.992;2023-07-31T05:20:35;17.50;99.90
19483;DHT22;9882;51.166;6.992;2023-07-31T05:23:04;17.60;99.90
19483;DHT22;9882;51.166;6.992;2023-07-31T05:25:32;17.60;99.90
19483;DHT22;9882;51.166;6.992;2023-07-31T05:28:01;17.70;99.90
19483;DHT22;9882;51.166;6.992;2023-07-31T05:33:23;17.60;99.90
19483;DHT22;9882;51.166;6.992;2023-07-31T05:35:51;17.70;99.90
19483;DHT22;9882;51.166;6.992;2023-07-31T05:38:20;17.70;99.90
19483;DHT22;9882;51.166;6.992;2023-07-31T05:40:49;17.60;99.90
19483;DHT22;9882;51.166;6.992;2023-07-31T05:43:17;17.70;99.90
19483;DHT22;9882;51.166;6.992;2023-07-31T05:45:46;17.70;99.90
19483;DHT22;9882;51.166;6.992;2023-07-31T05:48:17;17.70;99.90
19483;DHT22;9882;51.166;6.992;2023-07-31T05:50:48;17.60;99.90
19483;DHT22;9882;51.166;6.992;2023-07-31T05:53:17;17.60;99.90
19483;DHT22;9882;51.166;6.992;2023-07-31T05:55:49;17.60;99.90
19483;DHT22;9882;51.166;6.992;2023-07-31T05:58:17;17.60;99.90
19483;DHT22;9882;51.166;6.992;2023-07-31T06:00:46;17.60;99.90
19483;DHT22;9882;51.166;6.992;2023-07-31T06:03:14;17.60;99.90
19483;DHT22;9882;51.166;6.992;2023-07-31T06:05:43;17.70;99.90
19483;DHT22;9882;51.166;6.992;2023-07-31T06:08:13;17.80;99.90
19483;DHT22;9882;51.166;6.992;2023-07-31T06:10:41;17.70;99.90
19483;DHT22;9882;51.166;6.992;2023-07-31T06:13:10;17.70;99.90
19483;DHT22;9882;51.166;6.992;2023-07-31T06:15:41;17.60;99.90
19483;DHT22;9882;51.166;6.992;2023-07-31T06:18:10;17.60;99.90
19483;DHT22;9882;51.166;6.992;2023-07-31T06:20:39;17.60;99.90
19483;DHT22;9882;51.166;6.992;2023-07-31T06:23:14;17.60;99.90
19483;DHT22;9882;51.166;6.992;2023-07-31T06:25:47;17.50;99.90
19483;DHT22;9882;51.166;6.992;2023-07-31T06:28:16;17.60;99.90
19483;DHT22;9882;51.166;6.992;2023-07-31T06:30:44;17.50;99.90
19483;DHT22;9882;51.166;6.992;2023-07-31T06:33:13;17.50;99.90
19483;DHT22;9882;51.166;6.992;2023-07-31T06:35:42;17.50;99.90
19483;DHT22;9882;51.166;6.992;2023-07-31T06:38:11;17.40;99.90
19483;DHT22;9882;51.166;6.992;2023-07-31T06:40:41;17.60;99.90
19483;DHT22;9882;51.166;6.992;2023-07-31T06:43:09;17.50;99.90
19483;DHT22;9882;51.166;6.992;2023-07-31T06:45:38;17.40;99.90
19483;DHT22;9882;51.166;6.992;2023-07-31T06:48:10;17.40;99.90
19483;DHT22;9882;51.166;6.992;2023-07-31T06:50:41;17.60;99.90
19483;DHT22;9882;51.166;6.992;2023-07-31T06:53:10;17.60;99.90
19483;DHT22;9882;51.166;6.992;2023-07-31T06:55:38;17.40;99.90
19483;DHT22;9882;51.166;6.992;2023-07-31T06:58:09;17.60;99.90
19483;DHT22;9882;51.166;6.992;2023-07-31T07:00:42;17.60;99.90
19483;DHT22;9882;51.166;6.992;2023-07-31T07:03:11;17.70;99.90
19483;DHT22;9882;51.166;6.992;2023-07-31T07:05:42;17.60;99.90
19483;DHT22;9882;51.166;6.992;2023-07-31T07:08:11;17.60;99.90
19483;DHT22;9882;51.166;6.992;2023-07-31T07:10:39;17.40;99.90
19483;DHT22;9882;51.166;6.992;2023-07-31T07:13:12;17.60;99.90
19483;DHT22;9882;51.166;6.992;2023-07-31T07:15:41;17.60;99.90
19483;DHT22;9882;51.166;6.992;2023-07-31T07:18:12;17.60;99.90
19483;DHT22;9882;51.166;6.992;2023-07-31T07:20:46;17.50;99.90
19483;DHT22;9882;51.166;6.992;2023-07-31T07:23:15;17.60;99.90
19483;DHT22;9882;51.166;6.992;2023-07-31T07:25:44;17.60;99.90
19483;DHT22;9882;51.166;6.992;2023-07-31T07:28:14;17.70;99.90
19483;DHT22;9882;51.166;6.992;2023-07-31T07:30:43;17.70;99.90
19483;DHT22;9882;51.166;6.992;2023-07-31T07:33:14;17.60;99.90
19483;DHT22;9882;51.166;6.992;2023-07-31T07:35:45;17.60;99.90
19483;DHT22;9882;51.166;6.992;2023-07-31T07:38:14;17.60;99.90
19483;DHT22;9882;51.166;6.992;2023-07-31T07:40:43;17.60;99.90
19483;DHT22;9882;51.166;6.992;2023-07-31T07:43:13;17.60;99.90
19483;DHT22;9882;51.166;6.992;2023-07-31T07:45:42;17.50;99.90
19483;DHT22;9882;51.166;6.992;2023-07-31T07:48:11;17.60;99.90
19483;DHT22;9882;51.166;6.992;2023-07-31T07:50:39;17.60;99.90
19483;DHT22;9882;51.166;6.992;2023-07-31T07:53:10;17.60;99.90
19483;DHT22;9882;51.166;6.992;2023-07-31T07:55:41;17.60;99.90
19483;DHT22;9882;51.166;6.992;2023-07-31T07:58:16;17.50;99.90
19483;DHT22;9882;51.166;6.992;2023-07-31T08:00:49;17.40;99.90
19483;DHT22;9882;51.166;6.992;2023-07-31T08:03:24;17.50;99.90
19483;DHT22;9882;51.166;6.992;2023-07-31T08:05:58;17.30;99.90
19483;DHT22;9882;51.166;6.992;2023-07-31T08:08:28;17.30;99.90
19483;DHT22;9882;51.166;6.992;2023-07-31T08:11:02;17.20;99.90
19483;DHT22;9882;51.166;6.992;2023-07-31T08:13:32;17.20;99.90
19483;DHT22;9882;51.166;6.992;2023-07-31T08:16:01;17.40;99.90
19483;DHT22;9882;51.166;6.992;2023-07-31T08:18:35;17.30;99.90
19483;DHT22;9882;51.166;6.992;2023-07-31T08:21:04;17.40;99.90
19483;DHT22;9882;51.166;6.992;2023-07-31T08:23:35;17.30;99.90
19483;DHT22;9882;51.166;6.992;2023-07-31T08:26:04;17.20;99.90
19483;DHT22;9882;51.166;6.992;2023-07-31T08:28:34;17.20;99.90
19483;DHT22;9882;51.166;6.992;2023-07-31T08:31:19;17.20;99.90
19483;DHT22;9882;51.166;6.992;2023-07-31T08:33:48;17.30;99.90
19483;DHT22;9882;51.166;6.992;2023-07-31T08:36:17;17.40;99.90
19483;DHT22;9882;51.166;6.992;2023-07-31T08:38:46;17.40;99.90
19483;DHT22;9882;51.166;6.992;2023-07-31T08:41:15;17.40;99.90
19483;DHT22;9882;51.166;6.992;2023-07-31T08:43:46;17.50;99.90
19483;DHT22;9882;51.166;6.992;2023-07-31T08:46:16;17.50;99.90
19483;DHT22;9882;51.166;6.992;2023-07-31T08:48:46;17.40;99.90
19483;DHT22;9882;51.166;6.992;2023-07-31T08:51:15;17.50;99.90
19483;DHT22;9882;51.166;6.992;2023-07-31T08:53:44;17.50;99.90
19483;DHT22;9882;51.166;6.992;2023-07-31T08:56:18;17.50;99.90
19483;DHT22;9882;51.166;6.992;2023-07-31T08:58:49;17.70;99.90
19483;DHT22;9882;51.166;6.992;2023-07-31T09:01:19;17.50;99.90
19483;DHT22;9882;51.166;6.992;2023-07-31T09:03:52;17.60;99.90
19483;DHT22;9882;51.166;6.992;2023-07-31T09:06:26;17.70;99.90
19483;DHT22;9882;51.166;6.992;2023-07-31T09:08:57;17.70;99.90
19483;DHT22;9882;51.166;6.992;2023-07-31T09:11:25;17.70;99.90
19483;DHT22;9882;51.166;6.992;2023-07-31T09:13:57;17.70;99.90
19483;DHT22;9882;51.166;6.992;2023-07-31T09:16:29;17.70;99.90
19483;DHT22;9882;51.166;6.992;2023-07-31T09:18:59;17.80;99.90
19483;DHT22;9882;51.166;6.992;2023-07-31T09:21:29;17.60;99.90
19483;DHT22;9882;51.166;6.992;2023-07-31T09:24:01;17.50;99.90
19483;DHT22;9882;51.166;6.992;2023-07-31T09:26:33;17.40;99.90
19483;DHT22;9882;51.166;6.992;2023-07-31T09:29:06;17.40;99.90
19483;DHT22;9882;51.166;6.992;2023-07-31T09:31:40;17.30;99.90
19483;DHT22;9882;51.166;6.992;2023-07-31T09:34:09;17.20;99.90
19483;DHT22;9882;51.166;6.992;2023-07-31T09:36:46;17.20;99.90
19483;DHT22;9882;51.166;6.992;2023-07-31T09:39:17;17.30;99.90
19483;DHT22;9882;51.166;6.992;2023-07-31T09:41:53;17.30;99.90
19483;DHT22;9882;51.166;6.992;2023-07-31T09:44:37;17.50;99.90
19483;DHT22;9882;51.166;6.992;2023-07-31T09:47:10;17.50;99.90
19483;DHT22;9882;51.166;6.992;2023-07-31T09:49:49;17.40;99.90
19483;DHT22;9882;51.166;6.992;2023-07-31T09:52:17;17.30;99.90
19483;DHT22;9882;51.166;6.992;2023-07-31T09:54:46;17.40;99.90
19483;DHT22;9882;51.166;6.992;2023-07-31T09:57:17;17.50;99.90
19483;DHT22;9882;51.166;6.992;2023-07-31T09:59:48;17.70;99.90
19483;DHT22;9882;51.166;6.992;2023-07-31T10:02:21;17.70;99.90
19483;DHT22;9882;51.166;6.992;2023-07-31T10:04:50;17.70;99.90
19483;DHT22;9882;51.166;6.992;2023-07-31T10:07:20;17.60;99.90
19483;DHT22;9882;51.166;6.992;2023-07-31T10:09:52;17.60;99.90
19483;DHT22;9882;51.166;6.992;2023-07-31T10:12:26;17.60;99.90
19483;DHT22;9882;51.166;6.992;2023-07-31T10:14:58;17.70;99.90
19483;DHT22;9882;51.166;6.992;2023-07-31T10:17:29;17.80;99.90
19483;DHT22;9882;51.166;6.992;2023-07-31T10:19:58;17.60;99.90
19483;DHT22;9882;51.166;6.992;2023-07-31T10:22:29;17.60;99.90
19483;DHT22;9882;51.166;6.992;2023-07-31T10:25:01;17.60;99.90
19483;DHT22;9882;51.166;6.992;2023-07-31T10:27:30;17.70;99.90
19483;DHT22;9882;51.166;6.992;2023-07-31T10:30:00;17.70;99.90
19483;DHT22;9882;51.166;6.992;2023-07-31T10:32:29;17.70;99.90
19483;DHT22;9882;51.166;6.992;2023-07-31T10:34:58;17.70;99.90
19483;DHT22;9882;51.166;6.992;2023-07-31T10:37:28;17.90;99.90
19483;DHT22;9882;51.166;6.992;2023-07-31T10:39:59;17.90;99.90
19483;DHT22;9882;51.166;6.992;2023-07-31T10:42:33;18.00;99.90
19483;DHT22;9882;51.166;6.992;2023-07-31T10:45:05;17.90;99.90
19483;DHT22;9882;51.166;6.992;2023-07-31T10:47:38;18.00;99.90
19483;DHT22;9882;51.166;6.992;2023-07-31T10:50:16;18.00;99.90
19483;DHT22;9882;51.166;6.992;2023-07-31T10:52:48;18.20;99.90
19483;DHT22;9882;51.166;6.992;2023-07-31T10:55:31;18.10;99.90
19483;DHT22;9882;51.166;6.992;2023-07-31T10:58:08;18.20;99.90
19483;DHT22;9882;51.166;6.992;2023-07-31T11:00:40;18.10;99.90
19483;DHT22;9882;51.166;6.992;2023-07-31T11:03:10;18.30;99.90
19483;DHT22;9882;51.166;6.992;2023-07-31T11:05:47;18.30;99.90
19483;DHT22;9882;51.166;6.992;2023-07-31T11:08:19;18.40;99.90
19483;DHT22;9882;51.166;6.992;2023-07-31T11:10:50;18.30;99.90
19483;DHT22;9882;51.166;6.992;2023-07-31T11:13:19;18.30;99.90
19483;DHT22;9882;51.166;6.992;2023-07-31T11:15:49;18.30;99.90
19483;DHT22;9882;51.166;6.992;2023-07-31T11:18:20;18.30;99.90
19483;DHT22;9882;51.166;6.992;2023-07-31T11:20:48;18.20;99.90
19483;DHT22;9882;51.166;6.992;2023-07-31T11:23:21;18.10;99.90
19483;DHT22;9882;51.166;6.992;2023-07-31T11:25:50;18.10;99.90
19483;DHT22;9882;51.166;6.992;2023-07-31T11:28:24;18.00;99.90
19483;DHT22;9882;51.166;6.992;2023-07-31T11:31:00;18.10;99.90
19483;DHT22;9882;51.166;6.992;2023-07-31T11:33:30;18.10;99.90
19483;DHT22;9882;51.166;6.992;2023-07-31T11:35:58;18.00;99.90
19483;DHT22;9882;51.166;6.992;2023-07-31T11:38:29;18.10;99.90
19483;DHT22;9882;51.166;6.992;2023-07-31T11:40:59;18.20;99.90
19483;DHT22;9882;51.166;6.992;2023-07-31T11:43:31;18.10;99.90
19483;DHT22;9882;51.166;6.992;2023-07-31T11:46:01;18.20;99.90
19483;DHT22;9882;51.166;6.992;2023-07-31T11:48:33;18.20;99.90
19483;DHT22;9882;51.166;6.992;2023-07-31T11:51:04;18.30;99.90
19483;DHT22;9882;51.166;6.992;2023-07-31T11:53:36;18.30;99.90
19483;DHT22;9882;51.166;6.992;2023-07-31T11:56:10;18.30;99.90
19483;DHT22;9882;51.166;6.992;2023-07-31T11:58:40;18.30;99.90
19483;DHT22;9882;51.166;6.992;2023-07-31T12:01:10;18.20;99.90
19483;DHT22;9882;51.166;6.992;2023-07-31T12:03:40;18.30;99.90
19483;DHT22;9882;51.166;6.992;2023-07-31T12:06:10;18.30;99.90
19483;DHT22;9882;51.166;6.992;2023-07-31T12:08:38;18.40;99.90
19483;DHT22;9882;51.166;6.992;2023-07-31T12:11:08;18.50;99.90
19483;DHT22;9882;51.166;6.992;2023-07-31T12:13:37;18.30;99.90
19483;DHT22;9882;51.166;6.992;2023-07-31T12:16:06;18.30;99.90
19483;DHT22;9882;51.166;6.992;2023-07-31T12:18:37;18.40;99.90
19483;DHT22;9882;51.166;6.992;2023-07-31T12:21:07;18.40;99.90
19483;DHT22;9882;51.166;6.992;2023-07-31T12:23:38;18.50;99.90
19483;DHT22;9882;51.166;6.992;2023-07-31T12:26:11;18.50;99.90
19483;DHT22;9882;51.166;6.992;2023-07-31T12:28:41;18.50;99.90
19483;DHT22;9882;51.166;6.992;2023-07-31T12:31:11;18.50;99.90
19483;DHT22;9882;51.166;6.992;2023-07-31T12:33:41;18.50;99.90
19483;DHT22;9882;51.166;6.992;2023-07-31T12:36:13;18.50;99.90
19483;DHT22;9882;51.166;6.992;2023-07-31T12:38:42;18.50;99.90
19483;DHT22;9882;51.166;6.992;2023-07-31T12:41:11;18.50;99.90
19483;DHT22;9882;51.166;6.992;2023-07-31T12:43:40;18.50;99.90
19483;DHT22;9882;51.166;6.992;2023-07-31T12:46:09;18.50;99.90
19483;DHT22;9882;51.166;6.992;2023-07-31T12:48:38;18.50;99.90
19483;DHT22;9882;51.166;6.992;2023-07-31T12:51:08;18.50;99.90
19483;DHT22;9882;51.166;6.992;2023-07-31T12:53:37;18.60;99.90
19483;DHT22;9882;51.166;6.992;2023-07-31T12:56:05;18.60;99.90
19483;DHT22;9882;51.166;6.992;2023-07-31T12:58:34;18.50;99.90
19483;DHT22;9882;51.166;6.992;2023-07-31T13:01:02;18.70;99.90
19483;DHT22;9882;51.166;6.992;2023-07-31T13:03:31;18.80;99.90
19483;DHT22;9882;51.166;6.992;2023-07-31T13:06:00;18.70;99.90
19483;DHT22;9882;51.166;6.992;2023-07-31T13:08:29;18.70;99.90
19483;DHT22;9882;51.166;6.992;2023-07-31T13:10:58;18.70;99.90
19483;DHT22;9882;51.166;6.992;2023-07-31T13:13:26;18.80;99.90
19483;DHT22;9882;51.166;6.992;2023-07-31T13:15:56;18.80;99.90
19483;DHT22;9882;51.166;6.992;2023-07-31T13:18:25;18.80;99.90
19483;DHT22;9882;51.166;6.992;2023-07-31T13:20:53;18.90;99.90
19483;DHT22;9882;51.166;6.992;2023-07-31T13:23:22;18.90;99.90
19483;DHT22;9882;51.166;6.992;2023-07-31T13:25:52;19.00;99.90
19483;DHT22;9882;51.166;6.992;2023-07-31T13:28:20;18.90;99.90
19483;DHT22;9882;51.166;6.992;2023-07-31T13:30:49;18.90;99.90
19483;DHT22;9882;51.166;6.992;2023-07-31T13:33:17;19.00;99.90
19483;DHT22;9882;51.166;6.992;2023-07-31T13:35:56;19.10;99.90
19483;DHT22;9882;51.166;6.992;2023-07-31T13:38:24;19.30;99.90
19483;DHT22;9882;51.166;6.992;2023-07-31T13:40:54;19.40;99.90
19483;DHT22;9882;51.166;6.992;2023-07-31T13:43:23;19.60;99.90
19483;DHT22;9882;51.166;6.992;2023-07-31T13:45:52;19.80;99.90
19483;DHT22;9882;51.166;6.992;2023-07-31T13:48:20;20.10;99.90
19483;DHT22;9882;51.166;6.992;2023-07-31T13:50:50;20.10;99.90
19483;DHT22;9882;51.166;6.992;2023-07-31T13:53:23;20.20;99.90
19483;DHT22;9882;51.166;6.992;2023-07-31T13:55:57;20.40;99.90
19483;DHT22;9882;51.166;6.992;2023-07-31T13:58:28;20.40;99.90
19483;DHT22;9882;51.166;6.992;2023-07-31T14:00:59;20.20;99.90
19483;DHT22;9882;51.166;6.992;2023-07-31T14:03:27;20.10;99.90
19483;DHT22;9882;51.166;6.992;2023-07-31T14:05:56;20.20;99.90
19483;DHT22;9882;51.166;6.992;2023-07-31T14:08:25;20.20;99.90
19483;DHT22;9882;51.166;6.992;2023-07-31T14:10:55;20.20;99.90
19483;DHT22;9882;51.166;6.992;2023-07-31T14:13:23;20.00;99.90
19483;DHT22;9882;51.166;6.992;2023-07-31T14:15:52;19.90;99.90
19483;DHT22;9882;51.166;6.992;2023-07-31T14:18:21;19.80;99.90
19483;DHT22;9882;51.166;6.992;2023-07-31T14:20:49;19.80;99.90
19483;DHT22;9882;51.166;6.992;2023-07-31T14:23:18;19.70;99.90
19483;DHT22;9882;51.166;6.992;2023-07-31T14:25:47;19.60;99.90
19483;DHT22;9882;51.166;6.992;2023-07-31T14:28:17;19.60;99.90
19483;DHT22;9882;51.166;6.992;2023-07-31T14:30:45;19.60;99.90
19483;DHT22;9882;51.166;6.992;2023-07-31T14:33:14;19.60;99.90
19483;DHT22;9882;51.166;6.992;2023-07-31T14:35:43;19.50;99.90
19483;DHT22;9882;51.166;6.992;2023-07-31T14:38:12;19.50;99.90
19483;DHT22;9882;51.166;6.992;2023-07-31T14:40:41;19.50;99.90
19483;DHT22;9882;51.166;6.992;2023-07-31T14:43:10;19.60;99.90
19483;DHT22;9882;51.166;6.992;2023-07-31T14:45:40;19.70;99.90
19483;DHT22;9882;51.166;6.992;2023-07-31T14:48:09;19.80;99.90
19483;DHT22;9882;51.166;6.992;2023-07-31T14:50:38;19.80;99.90
19483;DHT22;9882;51.166;6.992;2023-07-31T14:53:06;19.90;99.90
19483;DHT22;9882;51.166;6.992;2023-07-31T14:55:35;19.90;99.90
19483;DHT22;9882;51.166;6.992;2023-07-31T14:58:03;19.90;99.90
19483;DHT22;9882;51.166;6.992;2023-07-31T15:00:32;20.00;99.90
19483;DHT22;9882;51.166;6.992;2023-07-31T15:03:02;19.90;99.90
19483;DHT22;9882;51.166;6.992;2023-07-31T15:05:30;20.00;99.90
19483;DHT22;9882;51.166;6.992;2023-07-31T15:07:59;20.00;99.90
19483;DHT22;9882;51.166;6.992;2023-07-31T15:10:27;20.00;99.90
19483;DHT22;9882;51.166;6.992;2023-07-31T15:12:56;20.00;99.90
19483;DHT22;9882;51.166;6.992;2023-07-31T15:15:24;20.00;99.90
19483;DHT22;9882;51.166;6.992;2023-07-31T15:17:53;20.00;99.90
19483;DHT22;9882;51.166;6.992;2023-07-31T15:20:24;19.90;99.90
19483;DHT22;9882;51.166;6.992;2023-07-31T15:22:52;19.90;99.90
19483;DHT22;9882;51.166;6.992;2023-07-31T15:25:21;19.90;99.90
19483;DHT22;9882;51.166;6.992;2023-07-31T15:27:49;19.90;99.90
19483;DHT22;9882;51.166;6.992;2023-07-31T15:30:18;19.80;99.90
19483;DHT22;9882;51.166;6.992;2023-07-31T15:32:46;19.90;99.90
19483;DHT22;9882;51.166;6.992;2023-07-31T15:35:17;19.90;99.90
19483;DHT22;9882;51.166;6.992;2023-07-31T15:37:48;19.90;99.90
19483;DHT22;9882;51.166;6.992;2023-07-31T15:40:16;19.90;99.90
19483;DHT22;9882;51.166;6.992;2023-07-31T15:42:45;19.80;99.90
19483;DHT22;9882;51.166;6.992;2023-07-31T15:45:13;19.80;99.90
19483;DHT22;9882;51.166;6.992;2023-07-31T15:47:42;19.70;99.90
19483;DHT22;9882;51.166;6.992;2023-07-31T15:50:11;19.80;99.90
19483;DHT22;9882;51.166;6.992;2023-07-31T15:52:39;19.80;99.90
19483;DHT22;9882;51.166;6.992;2023-07-31T15:55:10;19.70;99.90
19483;DHT22;9882;51.166;6.992;2023-07-31T15:57:38;19.70;99.90
19483;DHT22;9882;51.166;6.992;2023-07-31T16:00:08;19.70;99.90
19483;DHT22;9882;51.166;6.992;2023-07-31T16:02:37;19.50;99.90
19483;DHT22;9882;51.166;6.992;2023-07-31T16:05:06;19.40;99.90
19483;DHT22;9882;51.166;6.992;2023-07-31T16:07:35;19.40;99.90
19483;DHT22;9882;51.166;6.992;2023-07-31T16:10:04;19.30;99.90
19483;DHT22;9882;51.166;6.992;2023-07-31T16:12:34;19.40;99.90
19483;DHT22;9882;51.166;6.992;2023-07-31T16:15:04;19.30;99.90
19483;DHT22;9882;51.166;6.992;2023-07-31T16:17:32;19.20;99.90
19483;DHT22;9882;51.166;6.992;2023-07-31T16:20:01;19.30;99.90
19483;DHT22;9882;51.166;6.992;2023-07-31T16:22:29;19.20;99.90
19483;DHT22;9882;51.166;6.992;2023-07-31T16:24:58;19.20;99.90
19483;DHT22;9882;51.166;6.992;2023-07-31T16:27:26;18.90;99.90
19483;DHT22;9882;51.166;6.992;2023-07-31T16:29:56;18.80;99.90
19483;DHT22;9882;51.166;6.992;2023-07-31T16:32:27;18.80;99.90
19483;DHT22;9882;51.166;6.992;2023-07-31T16:34:56;19.00;99.90
19483;DHT22;9882;51.166;6.992;2023-07-31T16:37:24;19.00;99.90
19483;DHT22;9882;51.166;6.992;2023-07-31T16:39:53;18.70;99.90
19483;DHT22;9882;51.166;6.992;2023-07-31T16:42:22;18.70;99.90
19483;DHT22;9882;51.166;6.992;2023-07-31T16:44:50;18.70;99.90
19483;DHT22;9882;51.166;6.992;2023-07-31T16:47:20;18.70;99.90
19483;DHT22;9882;51.166;6.992;2023-07-31T16:49:49;18.90;99.90
19483;DHT22;9882;51.166;6.992;2023-07-31T16:52:17;18.90;99.90
19483;DHT22;9882;51.166;6.992;2023-07-31T16:54:47;18.90;99.90
19483;DHT22;9882;51.166;6.992;2023-07-31T16:57:15;19.10;99.90
19483;DHT22;9882;51.166;6.992;2023-07-31T16:59:44;18.90;99.90
19483;DHT22;9882;51.166;6.992;2023-07-31T17:02:12;18.90;99.90
19483;DHT22;9882;51.166;6.992;2023-07-31T17:04:42;19.10;99.90
19483;DHT22;9882;51.166;6.992;2023-07-31T17:07:11;19.00;99.90
19483;DHT22;9882;51.166;6.992;2023-07-31T17:09:40;19.00;99.90
19483;DHT22;9882;51.166;6.992;2023-07-31T17:12:08;18.90;99.90
19483;DHT22;9882;51.166;6.992;2023-07-31T17:14:37;18.70;99.90
19483;DHT22;9882;51.166;6.992;2023-07-31T17:17:06;18.70;99.90
19483;DHT22;9882;51.166;6.992;2023-07-31T17:19:34;18.70;99.90
19483;DHT22;9882;51.166;6.992;2023-07-31T17:22:05;18.80;99.90
19483;DHT22;9882;51.166;6.992;2023-07-31T17:24:33;18.70;99.90
19483;DHT22;9882;51.166;6.992;2023-07-31T17:27:02;18.60;99.90
19483;DHT22;9882;51.166;6.992;2023-07-31T17:29:31;18.60;99.90
19483;DHT22;9882;51.166;6.992;2023-07-31T17:31:59;18.80;99.90
19483;DHT22;9882;51.166;6.992;2023-07-31T17:34:28;19.00;99.90
19483;DHT22;9882;51.166;6.992;2023-07-31T17:36:56;19.00;99.90
19483;DHT22;9882;51.166;6.992;2023-07-31T17:39:25;18.90;99.90
19483;DHT22;9882;51.166;6.992;2023-07-31T17:41:54;19.00;99.90
19483;DHT22;9882;51.166;6.992;2023-07-31T17:44:23;18.70;99.90
19483;DHT22;9882;51.166;6.992;2023-07-31T17:46:51;18.80;99.90
19483;DHT22;9882;51.166;6.992;2023-07-31T17:49:20;18.60;99.90
19483;DHT22;9882;51.166;6.992;2023-07-31T17:51:48;18.60;99.90
19483;DHT22;9882;51.166;6.992;2023-07-31T17:54:17;18.70;99.90
19483;DHT22;9882;51.166;6.992;2023-07-31T17:56:47;18.80;99.90
19483;DHT22;9882;51.166;6.992;2023-07-31T17:59:15;18.80;99.90
19483;DHT22;9882;51.166;6.992;2023-07-31T18:01:44;18.70;99.90
19483;DHT22;9882;51.166;6.992;2023-07-31T18:04:13;18.80;99.90
19483;DHT22;9882;51.166;6.992;2023-07-31T18:06:42;18.60;99.90
19483;DHT22;9882;51.166;6.992;2023-07-31T18:09:10;18.60;99.90
19483;DHT22;9882;51.166;6.992;2023-07-31T18:11:39;18.70;99.90
19483;DHT22;9882;51.166;6.992;2023-07-31T18:14:08;18.80;99.90
19483;DHT22;9882;51.166;6.992;2023-07-31T18:16:37;18.90;99.90
19483;DHT22;9882;51.166;6.992;2023-07-31T18:19:05;18.70;99.90
19483;DHT22;9882;51.166;6.992;2023-07-31T18:21:35;18.90;99.90
19483;DHT22;9882;51.166;6.992;2023-07-31T18:24:05;18.70;99.90
19483;DHT22;9882;51.166;6.992;2023-07-31T18:26:33;18.70;99.90
19483;DHT22;9882;51.166;6.992;2023-07-31T18:29:03;18.80;99.90
19483;DHT22;9882;51.166;6.992;2023-07-31T18:31:33;18.70;99.90
19483;DHT22;9882;51.166;6.992;2023-07-31T18:34:02;18.50;99.90
19483;DHT22;9882;51.166;6.992;2023-07-31T18:36:30;18.50;99.90
19483;DHT22;9882;51.166;6.992;2023-07-31T18:39:00;18.40;99.90
19483;DHT22;9882;51.166;6.992;2023-07-31T18:41:29;18.50;99.90
19483;DHT22;9882;51.166;6.992;2023-07-31T18:43:58;18.60;99.90
19483;DHT22;9882;51.166;6.992;2023-07-31T18:46:26;18.40;99.90
19483;DHT22;9882;51.166;6.992;2023-07-31T18:48:56;18.40;99.90
19483;DHT22;9882;51.166;6.992;2023-07-31T18:51:25;18.30;99.90
19483;DHT22;9882;51.166;6.992;2023-07-31T18:53:54;18.40;99.90
19483;DHT22;9882;51.166;6.992;2023-07-31T18:56:22;18.40;99.90
19483;DHT22;9882;51.166;6.992;2023-07-31T18:58:51;18.30;99.90
19483;DHT22;9882;51.166;6.992;2023-07-31T19:01:21;18.30;99.90
19483;DHT22;9882;51.166;6.992;2023-07-31T19:03:49;18.40;99.90
19483;DHT22;9882;51.166;6.992;2023-07-31T19:06:19;18.30;99.90
19483;DHT22;9882;51.166;6.992;2023-07-31T19:08:47;18.20;99.90
19483;DHT22;9882;51.166;6.992;2023-07-31T19:11:16;18.20;99.90
19483;DHT22;9882;51.166;6.992;2023-07-31T19:13:51;18.10;99.90
19483;DHT22;9882;51.166;6.992;2023-07-31T19:16:19;18.30;99.90
19483;DHT22;9882;51.166;6.992;2023-07-31T19:18:48;18.20;99.90
19483;DHT22;9882;51.166;6.992;2023-07-31T19:21:18;18.00;99.90
19483;DHT22;9882;51.166;6.992;2023-07-31T19:23:46;18.20;99.90
19483;DHT22;9882;51.166;6.992;2023-07-31T19:26:17;18.20;99.90
19483;DHT22;9882;51.166;6.992;2023-07-31T19:28:45;18.20;99.90
19483;DHT22;9882;51.166;6.992;2023-07-31T19:31:14;18.20;99.90
19483;DHT22;9882;51.166;6.992;2023-07-31T19:33:42;18.20;99.90
19483;DHT22;9882;51.166;6.992;2023-07-31T19:36:11;18.30;99.90
19483;DHT22;9882;51.166;6.992;2023-07-31T19:38:41;18.30;99.90
19483;DHT22;9882;51.166;6.992;2023-07-31T19:41:10;18.30;99.90
19483;DHT22;9882;51.166;6.992;2023-07-31T19:43:39;18.30;99.90
19483;DHT22;9882;51.166;6.992;2023-07-31T19:46:08;18.30;99.90
19483;DHT22;9882;51.166;6.992;2023-07-31T19:48:36;18.30;99.90
19483;DHT22;9882;51.166;6.992;2023-07-31T19:51:05;18.30;99.90
19483;DHT22;9882;51.166;6.992;2023-07-31T19:53:33;18.30;99.90
19483;DHT22;9882;51.166;6.992;2023-07-31T19:56:04;18.30;99.90
19483;DHT22;9882;51.166;6.992;2023-07-31T19:58:33;18.20;99.90
19483;DHT22;9882;51.166;6.992;2023-07-31T20:01:21;18.20;99.90
19483;DHT22;9882;51.166;6.992;2023-07-31T20:03:52;18.10;99.90
19483;DHT22;9882;51.166;6.992;2023-07-31T20:06:22;18.10;99.90
19483;DHT22;9882;51.166;6.992;2023-07-31T20:08:51;18.20;99.90
19483;DHT22;9882;51.166;6.992;2023-07-31T20:11:22;18.30;99.90
19483;DHT22;9882;51.166;6.992;2023-07-31T20:13:51;18.30;99.90
19483;DHT22;9882;51.166;6.992;2023-07-31T20:16:20;18.40;99.90
19483;DHT22;9882;51.166;6.992;2023-07-31T20:18:49;18.40;99.90
19483;DHT22;9882;51.166;6.992;2023-07-31T20:21:21;18.40;99.90
19483;DHT22;9882;51.166;6.992;2023-07-31T20:23:50;18.20;99.90
19483;DHT22;9882;51.166;6.992;2023-07-31T20:26:19;18.40;99.90
19483;DHT22;9882;51.166;6.992;2023-07-31T20:28:49;18.40;99.90
19483;DHT22;9882;51.166;6.992;2023-07-31T20:31:18;18.30;99.90
19483;DHT22;9882;51.166;6.992;2023-07-31T20:33:48;18.30;99.90
19483;DHT22;9882;51.166;6.992;2023-07-31T20:36:17;18.30;99.90
19483;DHT22;9882;51.166;6.992;2023-07-31T20:38:46;18.40;99.90
19483;DHT22;9882;51.166;6.992;2023-07-31T20:41:15;18.50;99.90
19483;DHT22;9882;51.166;6.992;2023-07-31T20:43:44;18.50;99.90
19483;DHT22;9882;51.166;6.992;2023-07-31T20:46:14;18.40;99.90
19483;DHT22;9882;51.166;6.992;2023-07-31T20:48:45;18.30;99.90
19483;DHT22;9882;51.166;6.992;2023-07-31T20:51:14;18.30;99.90
19483;DHT22;9882;51.166;6.992;2023-07-31T20:53:43;18.40;99.90
19483;DHT22;9882;51.166;6.992;2023-07-31T20:56:12;18.40;99.90
19483;DHT22;9882;51.166;6.992;2023-07-31T20:58:40;18.30;99.90
19483;DHT22;9882;51.166;6.992;2023-07-31T21:01:09;18.30;99.90
19483;DHT22;9882;51.166;6.992;2023-07-31T21:03:39;18.30;99.90
19483;DHT22;9882;51.166;6.992;2023-07-31T21:06:08;18.30;99.90